CST,Max TemperatureF,Mean TemperatureF,Min TemperatureF,Max Dew PointF,MeanDew PointF,Min DewpointF,Max Humidity, Mean Humidity, Min Humidity, Max Sea Level PressureIn, Mean Sea Level PressureIn, Min Sea Level PressureIn, Max VisibilityMiles, Mean VisibilityMiles, Min VisibilityMiles, Max Wind SpeedMPH, Mean Wind SpeedMPH, Max Gust SpeedMPH,PrecipitationIn, CloudCover, Events, WindDirDegrees
2014-2-1,33,28,23,25,22,21,93,75,60,30.18,29.95,29.81,10,10,5,18,6,23,0.00,4,Snow,14
2014-2-2,35,25,15,21,12,7,80,60,35,30.28,30.20,30.15,10,10,7,17,10,20,0.00,1,Snow,49
2014-2-3,41,29,17,28,22,9,93,74,57,30.17,30.02,29.90,10,10,7,20,9,31,0.00,5,,173
2014-2-4,32,23,14,28,25,9,100,90,79,30.27,29.94,29.84,10,8,0,24,7,31,0.00,8,Snow,7
2014-2-5,12,8,3,9,1,-4,85,76,67,30.58,30.48,30.29,10,8,1,22,14,29,0.00,5,Snow,11
2014-2-6,14,8,3,9,2,0,85,77,67,30.51,30.37,30.23,10,9,3,10,7,,0.00,8,Snow,106
2014-2-7,30,16,3,23,13,1,100,83,68,30.21,30.05,29.92,10,7,0,16,7,22,0.00,1,Snow,144
2014-2-8,51,30,8,34,22,5,100,82,44,29.99,29.94,29.88,10,9,4,10,2,,0.00,0,,300
2014-2-9,28,24,19,28,24,19,100,97,93,30.25,30.09,29.96,10,4,0,15,8,16,0.00,7,Fog-Snow,38
2014-2-10,23,20,17,19,16,14,100,88,68,30.30,30.25,30.16,10,8,4,12,8,,0.00,8,Snow,48
2014-2-11,39,27,15,27,19,14,93,75,52,30.29,30.20,30.08,10,10,10,17,4,22,0.00,2,,182
2014-2-12,50,36,21,28,26,19,100,73,43,30.19,30.07,29.92,10,10,10,17,6,20,0.00,0,,150
2014-2-13,64,45,26,32,28,23,93,56,26,29.98,29.87,29.75,10,10,10,13,4,,0.00,0,,194
2014-2-14,57,44,32,32,26,19,75,48,23,30.11,29.99,29.74,10,10,10,25,11,33,0.00,0,,1
2014-2-15,73,52,32,37,28,19,87,49,19,30.12,29.98,29.86,10,10,10,24,9,33,0.00,0,,242
2014-2-16,69,48,28,34,31,23,100,60,23,30.12,29.93,29.75,10,10,10,18,6,24,0.00,0,,208
2014-2-17,62,50,39,28,18,10,61,30,14,30.22,30.10,29.81,10,10,10,22,11,25,0.00,0,,351
2014-2-18,78,60,42,21,15,5,39,21,6,30.04,29.90,29.80,10,10,10,20,12,25,0.00,0,,260
2014-2-19,69,53,37,32,26,21,70,39,16,30.01,29.75,29.43,10,10,10,21,7,29,0.00,0,,187
2014-2-20,60,43,24,32,14,0,81,37,15,30.09,29.90,29.40,10,10,2,28,16,43,0.00,1,,313
2014-2-21,60,40,21,14,10,9,63,35,13,30.09,29.96,29.89,10,10,10,13,5,18,0.00,0,,235
2014-2-22,64,45,26,18,13,9,55,32,12,29.91,29.85,29.78,10,10,10,13,5,,0.00,0,,77
2014-2-23,48,39,28,28,22,18,93,59,34,30.19,30.09,29.87,10,10,10,16,8,24,0.00,1,,60
2014-2-24,66,42,19,28,24,18,93,60,21,30.17,30.06,29.91,10,10,10,14,5,21,0.00,0,,137
2014-2-25,41,31,21,30,21,14,93,66,48,30.40,30.20,30.07,10,10,7,30,10,34,0.00,6,,43
2014-2-26,42,27,12,18,12,7,85,56,31,30.41,30.21,30.04,10,10,10,17,9,26,0.00,1,,264
2014-2-27,64,42,19,30,22,12,80,47,24,30.05,29.83,29.58,10,10,10,33,10,46,0.00,0,,195
2014-2-28,68,54,39,41,31,28,81,48,23,29.90,29.67,29.47,10,10,10,24,13,31,0.00,0,,356